sensor_id;sensor_type;location;lat;lon;timestamp;temperature;humidity
30148;DHT22;16960;49.404;8.248;2023-05-07T00:00:40;24.00;43.10
30148;DHT22;16960;49.404;8.248;2023-05-07T00:03:08;24.00;43.10
30148;DHT22;16960;49.404;8.248;2023-05-07T00:05:36;24.00;43.10
30148;DHT22;16960;49.404;8.248;2023-05-07T00:08:04;24.00;43.10
30148;DHT22;16960;49.404;8.248;2023-05-07T00:10:31;24.00;43.10
30148;DHT22;16960;49.404;8.248;2023-05-07T00:12:58;24.00;43.10
30148;DHT22;16960;49.404;8.248;2023-05-07T00:15:26;24.00;43.10
30148;DHT22;16960;49.404;8.248;2023-05-07T00:17:53;24.00;43.10
30148;DHT22;16960;49.404;8.248;2023-05-07T00:20:20;24.00;43.10
30148;DHT22;16960;49.404;8.248;2023-05-07T00:22:48;24.00;43.90
30148;DHT22;16960;49.404;8.248;2023-05-07T00:25:15;24.00;43.10
30148;DHT22;16960;49.404;8.248;2023-05-07T00:27:45;24.00;43.20
30148;DHT22;16960;49.404;8.248;2023-05-07T00:30:12;24.00;43.10
30148;DHT22;16960;49.404;8.248;2023-05-07T00:32:39;23.90;43.10
30148;DHT22;16960;49.404;8.248;2023-05-07T00:35:07;23.90;43.20
30148;DHT22;16960;49.404;8.248;2023-05-07T00:37:34;23.90;43.20
30148;DHT22;16960;49.404;8.248;2023-05-07T00:40:03;23.90;43.20
30148;DHT22;16960;49.404;8.248;2023-05-07T00:42:32;23.90;43.20
30148;DHT22;16960;49.404;8.248;2023-05-07T00:44:59;23.90;43.30
30148;DHT22;16960;49.404;8.248;2023-05-07T00:47:26;23.90;43.30
30148;DHT22;16960;49.404;8.248;2023-05-07T00:49:53;23.90;43.30
30148;DHT22;16960;49.404;8.248;2023-05-07T00:52:21;23.90;43.30
30148;DHT22;16960;49.404;8.248;2023-05-07T00:54:50;23.90;43.30
30148;DHT22;16960;49.404;8.248;2023-05-07T00:57:19;23.90;43.30
30148;DHT22;16960;49.404;8.248;2023-05-07T00:59:47;23.90;43.30
30148;DHT22;16960;49.404;8.248;2023-05-07T01:02:14;23.90;43.30
30148;DHT22;16960;49.404;8.248;2023-05-07T01:04:40;23.90;43.40
30148;DHT22;16960;49.404;8.248;2023-05-07T01:07:08;23.90;43.30
30148;DHT22;16960;49.404;8.248;2023-05-07T01:09:35;23.90;43.30
30148;DHT22;16960;49.404;8.248;2023-05-07T01:12:03;23.90;43.30
30148;DHT22;16960;49.404;8.248;2023-05-07T01:14:32;23.90;43.30
30148;DHT22;16960;49.404;8.248;2023-05-07T01:17:00;23.90;43.40
30148;DHT22;16960;49.404;8.248;2023-05-07T01:19:29;23.90;43.30
30148;DHT22;16960;49.404;8.248;2023-05-07T01:22:02;23.90;43.30
30148;DHT22;16960;49.404;8.248;2023-05-07T01:24:31;23.80;43.20
30148;DHT22;16960;49.404;8.248;2023-05-07T01:26:58;23.90;43.30
30148;DHT22;16960;49.404;8.248;2023-05-07T01:29:27;23.80;43.20
30148;DHT22;16960;49.404;8.248;2023-05-07T01:31:55;23.80;43.20
30148;DHT22;16960;49.404;8.248;2023-05-07T01:34:25;23.80;43.20
30148;DHT22;16960;49.404;8.248;2023-05-07T01:36:53;23.80;43.20
30148;DHT22;16960;49.404;8.248;2023-05-07T01:39:24;23.90;43.30
30148;DHT22;16960;49.404;8.248;2023-05-07T01:41:53;23.80;43.30
30148;DHT22;16960;49.404;8.248;2023-05-07T01:44:21;23.80;43.40
30148;DHT22;16960;49.404;8.248;2023-05-07T01:46:49;23.80;43.40
30148;DHT22;16960;49.404;8.248;2023-05-07T01:49:16;23.80;43.40
30148;DHT22;16960;49.404;8.248;2023-05-07T01:51:43;23.80;43.40
30148;DHT22;16960;49.404;8.248;2023-05-07T01:54:11;23.70;43.50
30148;DHT22;16960;49.404;8.248;2023-05-07T01:56:38;23.80;43.40
30148;DHT22;16960;49.404;8.248;2023-05-07T01:59:06;23.80;43.50
30148;DHT22;16960;49.404;8.248;2023-05-07T02:01:33;23.70;43.50
30148;DHT22;16960;49.404;8.248;2023-05-07T02:04:00;23.70;43.50
30148;DHT22;16960;49.404;8.248;2023-05-07T02:06:27;23.70;43.50
30148;DHT22;16960;49.404;8.248;2023-05-07T02:08:54;23.70;43.60
30148;DHT22;16960;49.404;8.248;2023-05-07T02:11:20;23.70;43.60
30148;DHT22;16960;49.404;8.248;2023-05-07T02:13:47;23.70;43.70
30148;DHT22;16960;49.404;8.248;2023-05-07T02:16:15;23.70;43.60
30148;DHT22;16960;49.404;8.248;2023-05-07T02:18:42;23.70;43.60
30148;DHT22;16960;49.404;8.248;2023-05-07T02:21:09;23.70;43.60
30148;DHT22;16960;49.404;8.248;2023-05-07T02:23:36;23.70;43.60
30148;DHT22;16960;49.404;8.248;2023-05-07T02:26:04;23.60;43.50
30148;DHT22;16960;49.404;8.248;2023-05-07T02:28:31;23.70;43.60
30148;DHT22;16960;49.404;8.248;2023-05-07T02:30:58;23.60;43.50
30148;DHT22;16960;49.404;8.248;2023-05-07T02:33:27;23.60;43.40
30148;DHT22;16960;49.404;8.248;2023-05-07T02:35:54;23.60;43.50
30148;DHT22;16960;49.404;8.248;2023-05-07T02:38:22;23.60;43.50
30148;DHT22;16960;49.404;8.248;2023-05-07T02:40:49;23.60;43.40
30148;DHT22;16960;49.404;8.248;2023-05-07T02:43:16;23.60;43.40
30148;DHT22;16960;49.404;8.248;2023-05-07T02:45:43;23.60;43.50
30148;DHT22;16960;49.404;8.248;2023-05-07T02:48:10;23.60;43.50
30148;DHT22;16960;49.404;8.248;2023-05-07T02:50:38;23.60;43.40
30148;DHT22;16960;49.404;8.248;2023-05-07T02:53:05;23.60;43.50
30148;DHT22;16960;49.404;8.248;2023-05-07T02:55:32;23.60;43.50
30148;DHT22;16960;49.404;8.248;2023-05-07T02:57:59;23.50;43.50
30148;DHT22;16960;49.404;8.248;2023-05-07T03:00:26;23.50;43.40
30148;DHT22;16960;49.404;8.248;2023-05-07T03:02:52;23.50;43.40
30148;DHT22;16960;49.404;8.248;2023-05-07T03:05:20;23.50;43.50
30148;DHT22;16960;49.404;8.248;2023-05-07T03:07:48;23.50;43.50
30148;DHT22;16960;49.404;8.248;2023-05-07T03:10:15;23.50;43.50
30148;DHT22;16960;49.404;8.248;2023-05-07T03:12:42;23.50;43.60
30148;DHT22;16960;49.404;8.248;2023-05-07T03:15:10;23.50;43.60
30148;DHT22;16960;49.404;8.248;2023-05-07T03:17:37;23.50;43.60
30148;DHT22;16960;49.404;8.248;2023-05-07T03:20:05;23.50;43.60
30148;DHT22;16960;49.404;8.248;2023-05-07T03:22:32;23.40;43.50
30148;DHT22;16960;49.404;8.248;2023-05-07T03:25:00;23.50;43.60
30148;DHT22;16960;49.404;8.248;2023-05-07T03:27:27;23.50;43.60
30148;DHT22;16960;49.404;8.248;2023-05-07T03:29:54;23.40;43.50
30148;DHT22;16960;49.404;8.248;2023-05-07T03:32:21;23.40;43.50
30148;DHT22;16960;49.404;8.248;2023-05-07T03:34:48;23.40;43.50
30148;DHT22;16960;49.404;8.248;2023-05-07T03:37:15;23.40;43.50
30148;DHT22;16960;49.404;8.248;2023-05-07T03:39:42;23.40;43.50
30148;DHT22;16960;49.404;8.248;2023-05-07T03:42:11;23.40;43.60
30148;DHT22;16960;49.404;8.248;2023-05-07T03:44:38;23.40;43.50
30148;DHT22;16960;49.404;8.248;2023-05-07T03:47:05;23.40;43.60
30148;DHT22;16960;49.404;8.248;2023-05-07T03:49:32;23.40;43.50
30148;DHT22;16960;49.404;8.248;2023-05-07T03:51:59;23.40;43.60
30148;DHT22;16960;49.404;8.248;2023-05-07T03:54:26;23.40;43.50
30148;DHT22;16960;49.404;8.248;2023-05-07T03:56:53;23.40;43.50
30148;DHT22;16960;49.404;8.248;2023-05-07T03:59:21;23.40;43.60
30148;DHT22;16960;49.404;8.248;2023-05-07T04:01:48;23.30;43.60
30148;DHT22;16960;49.404;8.248;2023-05-07T04:04:15;23.40;43.60
30148;DHT22;16960;49.404;8.248;2023-05-07T04:06:42;23.30;43.60
30148;DHT22;16960;49.404;8.248;2023-05-07T04:09:09;23.30;43.60
30148;DHT22;16960;49.404;8.248;2023-05-07T04:11:36;23.30;43.60
30148;DHT22;16960;49.404;8.248;2023-05-07T04:14:05;23.30;43.60
30148;DHT22;16960;49.404;8.248;2023-05-07T04:16:34;23.30;43.60
30148;DHT22;16960;49.404;8.248;2023-05-07T04:19:01;23.30;43.60
30148;DHT22;16960;49.404;8.248;2023-05-07T04:21:28;23.30;43.60
30148;DHT22;16960;49.404;8.248;2023-05-07T04:23:56;23.30;43.70
30148;DHT22;16960;49.404;8.248;2023-05-07T04:26:23;23.20;43.60
30148;DHT22;16960;49.404;8.248;2023-05-07T04:28:50;23.20;43.60
30148;DHT22;16960;49.404;8.248;2023-05-07T04:31:17;23.30;43.70
30148;DHT22;16960;49.404;8.248;2023-05-07T04:33:45;23.30;43.70
30148;DHT22;16960;49.404;8.248;2023-05-07T04:36:12;23.20;43.60
30148;DHT22;16960;49.404;8.248;2023-05-07T04:38:39;23.20;43.60
30148;DHT22;16960;49.404;8.248;2023-05-07T04:41:08;23.20;43.60
30148;DHT22;16960;49.404;8.248;2023-05-07T04:43:35;23.30;43.70
30148;DHT22;16960;49.404;8.248;2023-05-07T04:46:02;23.20;43.60
30148;DHT22;16960;49.404;8.248;2023-05-07T04:48:29;23.20;43.70
30148;DHT22;16960;49.404;8.248;2023-05-07T04:50:57;23.20;43.60
30148;DHT22;16960;49.404;8.248;2023-05-07T04:53:24;23.20;43.60
30148;DHT22;16960;49.404;8.248;2023-05-07T04:55:55;23.20;43.60
30148;DHT22;16960;49.404;8.248;2023-05-07T04:58:23;23.20;43.60
30148;DHT22;16960;49.404;8.248;2023-05-07T05:00:50;23.20;43.60
30148;DHT22;16960;49.404;8.248;2023-05-07T05:03:17;23.20;43.60
30148;DHT22;16960;49.404;8.248;2023-05-07T05:05:44;23.20;43.60
30148;DHT22;16960;49.404;8.248;2023-05-07T05:08:12;23.20;43.60
30148;DHT22;16960;49.404;8.248;2023-05-07T05:10:39;23.20;43.60
30148;DHT22;16960;49.404;8.248;2023-05-07T05:13:08;23.20;43.60
30148;DHT22;16960;49.404;8.248;2023-05-07T05:15:38;23.20;43.60
30148;DHT22;16960;49.404;8.248;2023-05-07T05:18:05;23.20;43.70
30148;DHT22;16960;49.404;8.248;2023-05-07T05:20:32;23.20;43.60
30148;DHT22;16960;49.404;8.248;2023-05-07T05:22:59;23.20;43.60
30148;DHT22;16960;49.404;8.248;2023-05-07T05:25:27;23.20;43.60
30148;DHT22;16960;49.404;8.248;2023-05-07T05:27:54;23.20;43.60
30148;DHT22;16960;49.404;8.248;2023-05-07T05:30:21;23.20;43.60
30148;DHT22;16960;49.404;8.248;2023-05-07T05:32:48;23.20;43.60
30148;DHT22;16960;49.404;8.248;2023-05-07T05:35:15;23.20;43.60
30148;DHT22;16960;49.404;8.248;2023-05-07T05:37:41;23.20;43.60
30148;DHT22;16960;49.404;8.248;2023-05-07T05:40:09;23.20;43.60
30148;DHT22;16960;49.404;8.248;2023-05-07T05:42:37;23.20;43.60
30148;DHT22;16960;49.404;8.248;2023-05-07T05:45:05;23.20;43.60
30148;DHT22;16960;49.404;8.248;2023-05-07T05:47:32;23.20;43.60
30148;DHT22;16960;49.404;8.248;2023-05-07T05:49:59;23.20;43.50
30148;DHT22;16960;49.404;8.248;2023-05-07T05:52:26;23.20;43.60
30148;DHT22;16960;49.404;8.248;2023-05-07T05:54:53;23.20;43.50
30148;DHT22;16960;49.404;8.248;2023-05-07T05:57:20;23.10;43.50
30148;DHT22;16960;49.404;8.248;2023-05-07T05:59:49;23.20;43.50
30148;DHT22;16960;49.404;8.248;2023-05-07T06:02:16;23.20;43.50
30148;DHT22;16960;49.404;8.248;2023-05-07T06:04:42;23.20;43.50
30148;DHT22;16960;49.404;8.248;2023-05-07T06:07:09;23.20;43.40
30148;DHT22;16960;49.404;8.248;2023-05-07T06:09:36;23.20;43.40
30148;DHT22;16960;49.404;8.248;2023-05-07T06:12:04;23.20;43.40
30148;DHT22;16960;49.404;8.248;2023-05-07T06:14:30;23.20;43.50
30148;DHT22;16960;49.404;8.248;2023-05-07T06:16:59;23.20;43.50
30148;DHT22;16960;49.404;8.248;2023-05-07T06:19:26;23.20;43.50
30148;DHT22;16960;49.404;8.248;2023-05-07T06:21:53;23.20;43.50
30148;DHT22;16960;49.404;8.248;2023-05-07T06:24:21;23.20;43.50
30148;DHT22;16960;49.404;8.248;2023-05-07T06:26:48;23.20;43.70
30148;DHT22;16960;49.404;8.248;2023-05-07T06:29:15;23.20;43.70
30148;DHT22;16960;49.404;8.248;2023-05-07T06:31:42;23.20;43.70
30148;DHT22;16960;49.404;8.248;2023-05-07T06:34:10;23.20;43.70
30148;DHT22;16960;49.404;8.248;2023-05-07T06:36:39;23.20;43.80
30148;DHT22;16960;49.404;8.248;2023-05-07T06:39:06;23.20;43.80
30148;DHT22;16960;49.404;8.248;2023-05-07T06:41:33;23.20;43.90
30148;DHT22;16960;49.404;8.248;2023-05-07T06:44:01;23.20;44.00
30148;DHT22;16960;49.404;8.248;2023-05-07T06:46:28;23.20;43.90
30148;DHT22;16960;49.404;8.248;2023-05-07T06:48:55;23.20;43.90
30148;DHT22;16960;49.404;8.248;2023-05-07T06:51:24;23.30;44.00
30148;DHT22;16960;49.404;8.248;2023-05-07T06:53:52;23.30;44.00
30148;DHT22;16960;49.404;8.248;2023-05-07T06:56:19;23.30;43.90
30148;DHT22;16960;49.404;8.248;2023-05-07T06:58:46;23.30;44.00
30148;DHT22;16960;49.404;8.248;2023-05-07T07:01:13;23.30;44.10
30148;DHT22;16960;49.404;8.248;2023-05-07T07:03:40;23.30;44.10
30148;DHT22;16960;49.404;8.248;2023-05-07T07:06:07;23.30;44.20
30148;DHT22;16960;49.404;8.248;2023-05-07T07:08:36;23.30;44.20
30148;DHT22;16960;49.404;8.248;2023-05-07T07:11:04;23.30;44.20
30148;DHT22;16960;49.404;8.248;2023-05-07T07:13:31;23.30;44.20
30148;DHT22;16960;49.404;8.248;2023-05-07T07:15:58;23.40;44.20
30148;DHT22;16960;49.404;8.248;2023-05-07T07:18:25;23.40;44.20
30148;DHT22;16960;49.404;8.248;2023-05-07T07:20:52;23.40;44.20
30148;DHT22;16960;49.404;8.248;2023-05-07T07:23:19;23.40;44.10
30148;DHT22;16960;49.404;8.248;2023-05-07T07:25:47;23.40;44.80
30148;DHT22;16960;49.404;8.248;2023-05-07T07:28:14;23.40;44.00
30148;DHT22;16960;49.404;8.248;2023-05-07T07:30:41;23.40;44.00
30148;DHT22;16960;49.404;8.248;2023-05-07T07:33:08;23.40;43.90
30148;DHT22;16960;49.404;8.248;2023-05-07T07:35:35;23.50;44.00
30148;DHT22;16960;49.404;8.248;2023-05-07T07:38:02;23.40;43.90
30148;DHT22;16960;49.404;8.248;2023-05-07T07:40:29;23.50;44.00
30148;DHT22;16960;49.404;8.248;2023-05-07T07:42:57;23.50;43.90
30148;DHT22;16960;49.404;8.248;2023-05-07T07:45:25;23.50;43.90
30148;DHT22;16960;49.404;8.248;2023-05-07T07:47:52;23.50;43.90
30148;DHT22;16960;49.404;8.248;2023-05-07T07:50:19;23.50;44.50
30148;DHT22;16960;49.404;8.248;2023-05-07T07:52:46;23.50;43.90
30148;DHT22;16960;49.404;8.248;2023-05-07T07:55:13;23.50;43.80
30148;DHT22;16960;49.404;8.248;2023-05-07T07:57:43;23.50;44.20
30148;DHT22;16960;49.404;8.248;2023-05-07T08:00:13;23.60;44.20
30148;DHT22;16960;49.404;8.248;2023-05-07T08:02:40;23.60;43.90
30148;DHT22;16960;49.404;8.248;2023-05-07T08:05:07;23.70;43.80
30148;DHT22;16960;49.404;8.248;2023-05-07T08:07:34;23.70;43.80
30148;DHT22;16960;49.404;8.248;2023-05-07T08:10:02;23.80;43.70
30148;DHT22;16960;49.404;8.248;2023-05-07T08:12:29;23.80;43.50
30148;DHT22;16960;49.404;8.248;2023-05-07T08:14:56;23.90;43.50
30148;DHT22;16960;49.404;8.248;2023-05-07T08:17:24;23.90;43.50
30148;DHT22;16960;49.404;8.248;2023-05-07T08:19:51;24.00;43.40
30148;DHT22;16960;49.404;8.248;2023-05-07T08:22:18;24.00;43.30
30148;DHT22;16960;49.404;8.248;2023-05-07T08:24:45;24.10;43.30
30148;DHT22;16960;49.404;8.248;2023-05-07T08:27:12;24.10;43.60
30148;DHT22;16960;49.404;8.248;2023-05-07T08:29:38;24.10;43.70
30148;DHT22;16960;49.404;8.248;2023-05-07T08:32:05;24.20;43.50
30148;DHT22;16960;49.404;8.248;2023-05-07T08:34:34;24.20;43.40
30148;DHT22;16960;49.404;8.248;2023-05-07T08:37:01;24.20;43.30
30148;DHT22;16960;49.404;8.248;2023-05-07T08:39:27;24.20;43.30
30148;DHT22;16960;49.404;8.248;2023-05-07T08:41:55;24.20;43.30
30148;DHT22;16960;49.404;8.248;2023-05-07T08:44:26;24.10;43.30
30148;DHT22;16960;49.404;8.248;2023-05-07T08:46:56;24.20;43.30
30148;DHT22;16960;49.404;8.248;2023-05-07T08:49:23;24.10;43.50
30148;DHT22;16960;49.404;8.248;2023-05-07T08:51:51;24.10;43.50
30148;DHT22;16960;49.404;8.248;2023-05-07T08:54:19;24.10;43.50
30148;DHT22;16960;49.404;8.248;2023-05-07T08:56:47;24.10;43.60
30148;DHT22;16960;49.404;8.248;2023-05-07T08:59:14;24.10;43.50
30148;DHT22;16960;49.404;8.248;2023-05-07T09:01:41;24.10;43.50
30148;DHT22;16960;49.404;8.248;2023-05-07T09:04:08;24.10;43.50
30148;DHT22;16960;49.404;8.248;2023-05-07T09:06:35;24.10;43.50
30148;DHT22;16960;49.404;8.248;2023-05-07T09:09:04;24.10;43.60
30148;DHT22;16960;49.404;8.248;2023-05-07T09:11:32;24.10;43.40
30148;DHT22;16960;49.404;8.248;2023-05-07T09:13:59;24.10;43.40
30148;DHT22;16960;49.404;8.248;2023-05-07T09:16:28;24.10;43.30
30148;DHT22;16960;49.404;8.248;2023-05-07T09:18:57;24.10;43.30
30148;DHT22;16960;49.404;8.248;2023-05-07T09:21:24;24.10;43.30
30148;DHT22;16960;49.404;8.248;2023-05-07T09:23:51;24.10;43.30
30148;DHT22;16960;49.404;8.248;2023-05-07T09:26:21;24.10;43.50
30148;DHT22;16960;49.404;8.248;2023-05-07T09:28:48;24.20;43.50
30148;DHT22;16960;49.404;8.248;2023-05-07T09:31:15;24.20;43.50
30148;DHT22;16960;49.404;8.248;2023-05-07T09:33:42;24.20;43.30
30148;DHT22;16960;49.404;8.248;2023-05-07T09:36:09;24.20;43.20
30148;DHT22;16960;49.404;8.248;2023-05-07T09:38:38;24.20;43.20
30148;DHT22;16960;49.404;8.248;2023-05-07T09:41:06;24.20;43.10
30148;DHT22;16960;49.404;8.248;2023-05-07T09:43:35;24.20;43.00
30148;DHT22;16960;49.404;8.248;2023-05-07T09:46:05;24.30;43.10
30148;DHT22;16960;49.404;8.248;2023-05-07T09:48:37;24.30;43.00
30148;DHT22;16960;49.404;8.248;2023-05-07T09:51:09;24.30;42.90
30148;DHT22;16960;49.404;8.248;2023-05-07T09:53:39;24.30;42.80
30148;DHT22;16960;49.404;8.248;2023-05-07T09:56:07;24.40;42.80
30148;DHT22;16960;49.404;8.248;2023-05-07T09:58:37;24.40;42.80
30148;DHT22;16960;49.404;8.248;2023-05-07T10:01:04;24.40;42.70
30148;DHT22;16960;49.404;8.248;2023-05-07T10:03:33;24.50;42.60
30148;DHT22;16960;49.404;8.248;2023-05-07T10:06:02;24.60;42.50
30148;DHT22;16960;49.404;8.248;2023-05-07T10:08:30;24.60;42.50
30148;DHT22;16960;49.404;8.248;2023-05-07T10:10:57;24.70;42.50
30148;DHT22;16960;49.404;8.248;2023-05-07T10:13:24;24.70;42.40
30148;DHT22;16960;49.404;8.248;2023-05-07T10:15:53;24.80;42.20
30148;DHT22;16960;49.404;8.248;2023-05-07T10:18:22;24.80;42.30
30148;DHT22;16960;49.404;8.248;2023-05-07T10:20:56;24.90;42.30
30148;DHT22;16960;49.404;8.248;2023-05-07T10:23:25;25.00;42.20
30148;DHT22;16960;49.404;8.248;2023-05-07T10:25:53;25.00;41.90
30148;DHT22;16960;49.404;8.248;2023-05-07T10:28:22;25.10;41.80
30148;DHT22;16960;49.404;8.248;2023-05-07T10:31:01;25.10;41.70
30148;DHT22;16960;49.404;8.248;2023-05-07T10:33:31;25.20;41.60
30148;DHT22;16960;49.404;8.248;2023-05-07T10:36:00;25.20;41.50
30148;DHT22;16960;49.404;8.248;2023-05-07T10:38:30;25.20;41.40
30148;DHT22;16960;49.404;8.248;2023-05-07T10:40:57;25.30;41.30
30148;DHT22;16960;49.404;8.248;2023-05-07T10:43:24;25.30;41.20
30148;DHT22;16960;49.404;8.248;2023-05-07T10:46:14;25.40;41.20
30148;DHT22;16960;49.404;8.248;2023-05-07T10:49:11;25.40;41.10
30148;DHT22;16960;49.404;8.248;2023-05-07T10:51:38;25.40;41.00
30148;DHT22;16960;49.404;8.248;2023-05-07T10:54:18;25.50;41.00
30148;DHT22;16960;49.404;8.248;2023-05-07T10:56:45;25.50;40.90
30148;DHT22;16960;49.404;8.248;2023-05-07T10:59:34;25.50;40.90
30148;DHT22;16960;49.404;8.248;2023-05-07T11:02:09;25.60;40.80
30148;DHT22;16960;49.404;8.248;2023-05-07T11:04:37;25.60;40.70
30148;DHT22;16960;49.404;8.248;2023-05-07T11:07:29;25.70;40.60
30148;DHT22;16960;49.404;8.248;2023-05-07T11:10:00;25.70;41.20
30148;DHT22;16960;49.404;8.248;2023-05-07T11:13:02;25.80;40.50
30148;DHT22;16960;49.404;8.248;2023-05-07T11:15:42;25.90;40.40
30148;DHT22;16960;49.404;8.248;2023-05-07T11:18:12;26.00;40.70
30148;DHT22;16960;49.404;8.248;2023-05-07T11:20:50;26.10;40.40
30148;DHT22;16960;49.404;8.248;2023-05-07T11:26:47;26.30;40.00
30148;DHT22;16960;49.404;8.248;2023-05-07T11:29:15;26.40;39.90
30148;DHT22;16960;49.404;8.248;2023-05-07T11:31:42;26.40;39.80
30148;DHT22;16960;49.404;8.248;2023-05-07T11:34:11;26.50;39.80
30148;DHT22;16960;49.404;8.248;2023-05-07T11:36:42;26.50;39.70
30148;DHT22;16960;49.404;8.248;2023-05-07T11:39:29;26.60;39.60
30148;DHT22;16960;49.404;8.248;2023-05-07T11:41:57;26.70;39.50
30148;DHT22;16960;49.404;8.248;2023-05-07T11:44:24;26.70;39.40
30148;DHT22;16960;49.404;8.248;2023-05-07T11:46:51;26.80;39.50
30148;DHT22;16960;49.404;8.248;2023-05-07T11:49:19;26.70;39.60
30148;DHT22;16960;49.404;8.248;2023-05-07T11:51:46;26.70;39.70
30148;DHT22;16960;49.404;8.248;2023-05-07T11:54:16;26.70;40.20
30148;DHT22;16960;49.404;8.248;2023-05-07T11:56:44;26.70;39.60
30148;DHT22;16960;49.404;8.248;2023-05-07T11:59:11;26.70;39.60
30148;DHT22;16960;49.404;8.248;2023-05-07T12:01:38;26.70;39.60
30148;DHT22;16960;49.404;8.248;2023-05-07T12:04:05;26.70;39.70
30148;DHT22;16960;49.404;8.248;2023-05-07T12:06:36;26.70;39.70
30148;DHT22;16960;49.404;8.248;2023-05-07T12:09:04;26.70;40.00
30148;DHT22;16960;49.404;8.248;2023-05-07T12:11:32;26.60;39.80
30148;DHT22;16960;49.404;8.248;2023-05-07T12:13:59;26.60;39.90
30148;DHT22;16960;49.404;8.248;2023-05-07T12:16:26;26.60;39.90
30148;DHT22;16960;49.404;8.248;2023-05-07T12:18:53;26.60;40.00
30148;DHT22;16960;49.404;8.248;2023-05-07T12:21:21;26.60;40.00
30148;DHT22;16960;49.404;8.248;2023-05-07T12:23:52;26.60;40.10
30148;DHT22;16960;49.404;8.248;2023-05-07T12:26:19;26.60;40.10
30148;DHT22;16960;49.404;8.248;2023-05-07T12:28:47;26.60;40.10
30148;DHT22;16960;49.404;8.248;2023-05-07T12:31:14;26.60;40.10
30148;DHT22;16960;49.404;8.248;2023-05-07T12:33:42;26.60;40.10
30148;DHT22;16960;49.404;8.248;2023-05-07T12:36:12;26.60;40.20
30148;DHT22;16960;49.404;8.248;2023-05-07T12:38:40;26.60;40.40
30148;DHT22;16960;49.404;8.248;2023-05-07T12:41:09;26.50;40.20
30148;DHT22;16960;49.404;8.248;2023-05-07T12:43:38;26.40;40.10
30148;DHT22;16960;49.404;8.248;2023-05-07T12:46:05;26.30;40.60
30148;DHT22;16960;49.404;8.248;2023-05-07T12:48:32;26.30;40.80
30148;DHT22;16960;49.404;8.248;2023-05-07T12:51:00;26.20;41.00
30148;DHT22;16960;49.404;8.248;2023-05-07T12:53:29;26.20;41.00
30148;DHT22;16960;49.404;8.248;2023-05-07T12:55:57;26.20;41.00
30148;DHT22;16960;49.404;8.248;2023-05-07T12:58:27;26.30;40.90
30148;DHT22;16960;49.404;8.248;2023-05-07T13:00:56;26.20;40.90
30148;DHT22;16960;49.404;8.248;2023-05-07T13:03:28;26.20;40.80
30148;DHT22;16960;49.404;8.248;2023-05-07T13:05:57;26.20;40.80
30148;DHT22;16960;49.404;8.248;2023-05-07T13:08:29;26.20;40.80
30148;DHT22;16960;49.404;8.248;2023-05-07T13:10:57;26.20;40.80
30148;DHT22;16960;49.404;8.248;2023-05-07T13:13:26;26.20;40.80
30148;DHT22;16960;49.404;8.248;2023-05-07T13:15:53;26.20;40.80
30148;DHT22;16960;49.404;8.248;2023-05-07T13:18:20;26.20;40.90
30148;DHT22;16960;49.404;8.248;2023-05-07T13:20:47;26.20;41.00
30148;DHT22;16960;49.404;8.248;2023-05-07T13:23:14;26.20;41.20
30148;DHT22;16960;49.404;8.248;2023-05-07T13:25:41;26.10;41.80
30148;DHT22;16960;49.404;8.248;2023-05-07T13:28:07;26.10;41.80
30148;DHT22;16960;49.404;8.248;2023-05-07T13:30:36;26.20;41.60
30148;DHT22;16960;49.404;8.248;2023-05-07T13:33:03;26.10;41.60
30148;DHT22;16960;49.404;8.248;2023-05-07T13:35:30;26.10;41.40
30148;DHT22;16960;49.404;8.248;2023-05-07T13:37:57;26.10;41.30
30148;DHT22;16960;49.404;8.248;2023-05-07T13:40:24;26.10;41.40
30148;DHT22;16960;49.404;8.248;2023-05-07T13:42:51;26.10;41.70
30148;DHT22;16960;49.404;8.248;2023-05-07T13:45:18;26.10;41.80
30148;DHT22;16960;49.404;8.248;2023-05-07T13:47:47;26.10;41.80
30148;DHT22;16960;49.404;8.248;2023-05-07T13:50:15;26.10;43.00
30148;DHT22;16960;49.404;8.248;2023-05-07T13:52:42;26.00;42.80
30148;DHT22;16960;49.404;8.248;2023-05-07T13:55:13;26.00;42.40
30148;DHT22;16960;49.404;8.248;2023-05-07T13:57:40;26.00;42.20
30148;DHT22;16960;49.404;8.248;2023-05-07T14:00:08;25.90;42.00
30148;DHT22;16960;49.404;8.248;2023-05-07T14:02:35;25.90;42.00
30148;DHT22;16960;49.404;8.248;2023-05-07T14:05:04;25.80;41.90
30148;DHT22;16960;49.404;8.248;2023-05-07T14:07:31;25.80;41.90
30148;DHT22;16960;49.404;8.248;2023-05-07T14:09:57;25.80;42.00
30148;DHT22;16960;49.404;8.248;2023-05-07T14:12:25;25.70;42.10
30148;DHT22;16960;49.404;8.248;2023-05-07T14:14:52;25.70;43.50
30148;DHT22;16960;49.404;8.248;2023-05-07T14:17:18;25.70;43.10
30148;DHT22;16960;49.404;8.248;2023-05-07T14:19:45;25.60;42.70
30148;DHT22;16960;49.404;8.248;2023-05-07T14:22:14;25.60;42.80
30148;DHT22;16960;49.404;8.248;2023-05-07T14:24:41;25.60;42.60
30148;DHT22;16960;49.404;8.248;2023-05-07T14:27:08;25.60;42.70
30148;DHT22;16960;49.404;8.248;2023-05-07T14:29:35;25.60;42.70
30148;DHT22;16960;49.404;8.248;2023-05-07T14:32:02;25.50;42.80
30148;DHT22;16960;49.404;8.248;2023-05-07T14:34:29;25.50;42.80
30148;DHT22;16960;49.404;8.248;2023-05-07T14:36:56;25.50;42.90
30148;DHT22;16960;49.404;8.248;2023-05-07T14:39:24;25.50;42.90
30148;DHT22;16960;49.404;8.248;2023-05-07T14:41:52;25.50;43.00
30148;DHT22;16960;49.404;8.248;2023-05-07T14:44:20;25.50;43.00
30148;DHT22;16960;49.404;8.248;2023-05-07T14:46:47;25.40;43.00
30148;DHT22;16960;49.404;8.248;2023-05-07T14:49:14;25.40;43.00
30148;DHT22;16960;49.404;8.248;2023-05-07T14:51:43;25.40;43.00
30148;DHT22;16960;49.404;8.248;2023-05-07T14:54:10;25.40;43.10
30148;DHT22;16960;49.404;8.248;2023-05-07T14:56:39;25.40;43.10
30148;DHT22;16960;49.404;8.248;2023-05-07T14:59:06;25.40;43.20
30148;DHT22;16960;49.404;8.248;2023-05-07T15:01:34;25.40;43.20
30148;DHT22;16960;49.404;8.248;2023-05-07T15:04:02;25.40;43.30
30148;DHT22;16960;49.404;8.248;2023-05-07T15:06:29;25.30;43.30
30148;DHT22;16960;49.404;8.248;2023-05-07T15:08:56;25.30;43.40
30148;DHT22;16960;49.404;8.248;2023-05-07T15:11:23;25.30;43.40
30148;DHT22;16960;49.404;8.248;2023-05-07T15:13:52;25.30;43.40
30148;DHT22;16960;49.404;8.248;2023-05-07T15:16:19;25.30;44.20
30148;DHT22;16960;49.404;8.248;2023-05-07T15:18:46;25.30;43.50
30148;DHT22;16960;49.404;8.248;2023-05-07T15:21:13;25.30;43.50
30148;DHT22;16960;49.404;8.248;2023-05-07T15:23:40;25.30;43.60
30148;DHT22;16960;49.404;8.248;2023-05-07T15:26:07;25.20;43.60
30148;DHT22;16960;49.404;8.248;2023-05-07T15:28:34;25.30;43.60
30148;DHT22;16960;49.404;8.248;2023-05-07T15:31:03;25.20;43.60
30148;DHT22;16960;49.404;8.248;2023-05-07T15:33:30;25.20;43.60
30148;DHT22;16960;49.404;8.248;2023-05-07T15:35:57;25.20;43.60
30148;DHT22;16960;49.404;8.248;2023-05-07T15:38:25;25.20;43.70